Time;durP1;ratioP1;P1;durP2;ratioP2;P2;SDS_P1;SDS_P2;PMS_P1;PMS_P2;Temp;Humidity;BMP_temperature;BMP_pressure;BME280_temperature;BME280_humidity;BME280_pressure;Samples;Min_cycle;Max_cycle;Signal;HPM_P1;HPM_P2
2022/01/13 00:01:54;;;;;;;10.25;8.50;;;-0.80;99.90;;;;;;4937025;29;20380;-74
2022/01/13 00:04:22;;;;;;;;;;;-0.90;99.90;;;;;;4937053;29;20039;-79
2022/01/13 00:06:50;;;;;;;7.60;6.82;;;-0.90;99.90;;;;;;4936774;29;19919;-76
2022/01/13 00:09:18;;;;;;;12.73;8.68;;;-0.90;99.90;;;;;;4954472;28;20203;-76
2022/01/13 00:11:47;;;;;;;15.00;8.88;;;-0.90;99.90;;;;;;4956075;28;20130;-77
2022/01/13 00:19:46;;;;;;;9.45;7.05;;;-1.00;99.90;;;;;;4955451;28;20053;-77
2022/01/13 00:24:48;;;;;;;13.68;9.13;;;-1.20;99.90;;;;;;4936275;29;20143;-76
2022/01/13 00:27:16;;;;;;;15.57;9.75;;;-1.00;99.90;;;;;;4936299;29;20040;-78
2022/01/13 00:29:45;;;;;;;8.18;7.13;;;-1.20;99.90;;;;;;4935024;29;20047;-79
2022/01/13 00:32:15;;;;;;;12.97;9.13;;;-1.20;99.90;;;;;;4936461;29;20067;-78
2022/01/13 00:34:43;;;;;;;11.85;8.77;;;-1.30;99.90;;;;;;4936170;29;20237;-80
2022/01/13 00:37:11;;;;;;;13.10;8.75;;;-1.20;99.90;;;;;;4935057;29;20564;-78
2022/01/13 00:39:38;;;;;;;13.95;9.40;;;-1.30;99.90;;;;;;4936152;29;20051;-81
2022/01/13 00:42:06;;;;;;;13.35;9.32;;;-1.30;99.90;;;;;;4936937;29;20047;-80
2022/01/13 00:44:38;;;;;;;12.90;9.57;;;-1.20;99.90;;;;;;4935902;29;20429;-80
2022/01/13 00:47:09;;;;;;;16.20;9.82;;;-1.30;99.90;;;;;;4935229;29;20039;-84
2022/01/13 00:49:36;;;;;;;13.18;9.30;;;-1.30;99.90;;;;;;4936530;29;20050;-80
2022/01/13 00:52:04;;;;;;;14.35;9.63;;;-1.10;99.90;;;;;;4936792;29;20383;-81
2022/01/13 00:54:33;;;;;;;13.90;9.05;;;-1.20;99.90;;;;;;4936628;29;20690;-87
2022/01/13 00:57:01;;;;;;;10.52;7.45;;;-1.10;99.90;;;;;;4936073;29;20054;-84
2022/01/13 00:59:29;;;;;;;9.38;6.82;;;-1.30;99.90;;;;;;4935948;29;20050;-74
2022/01/13 01:01:56;;;;;;;15.95;9.43;;;-1.30;99.90;;;;;;4938612;29;20091;-75
2022/01/13 01:04:24;;;;;;;12.23;7.75;;;-1.30;99.90;;;;;;4944207;29;20506;-78
2022/01/13 01:06:52;;;;;;;12.40;8.85;;;-1.40;99.90;;;;;;4953369;29;20047;-76
2022/01/13 01:09:30;;;;;;;13.77;9.52;;;-1.30;99.90;;;;;;4954897;28;20035;-75
2022/01/13 01:11:58;;;;;;;15.68;8.93;;;-1.30;99.90;;;;;;4953645;28;20380;-81
2022/01/13 01:14:26;;;;;;;12.30;7.82;;;-1.30;99.90;;;;;;4954035;28;20047;-82
2022/01/13 01:16:53;;;;;;;12.10;7.53;;;-1.40;99.90;;;;;;4952345;29;20047;-75
2022/01/13 01:19:27;;;;;;;12.27;7.72;;;-1.30;99.90;;;;;;4955190;28;20043;-87
2022/01/13 01:24:56;;;;;;;15.25;8.75;;;-1.40;99.90;;;;;;4935710;29;20046;-81
2022/01/13 01:27:22;;;;;;;10.95;8.55;;;-1.40;99.90;;;;;;4936540;29;20078;-84
2022/01/13 01:29:57;;;;;;;;;;;-1.40;99.90;;;;;;4935935;29;20031;-84
2022/01/13 01:32:26;;;;;;;14.38;8.35;;;-1.40;99.90;;;;;;4936335;29;19919;-79
2022/01/13 01:34:57;;;;;;;11.40;8.38;;;-1.40;99.90;;;;;;4933800;29;20043;-77
2022/01/13 01:37:27;;;;;;;13.45;8.63;;;-1.50;99.90;;;;;;4950589;29;20066;-81
2022/01/13 01:39:56;;;;;;;16.17;9.68;;;-1.40;99.90;;;;;;4936318;29;20042;-78
2022/01/13 01:42:26;;;;;;;13.37;9.73;;;-1.50;99.90;;;;;;4935798;29;20046;-81
2022/01/13 01:44:56;;;;;;;15.60;8.20;;;-1.50;99.90;;;;;;4934916;29;20039;-78
2022/01/13 01:47:27;;;;;;;11.85;8.85;;;-1.60;99.90;;;;;;4934966;29;20036;-83
2022/01/13 01:49:58;;;;;;;13.48;8.43;;;-1.60;99.90;;;;;;4934803;29;20091;-81
2022/01/13 01:52:26;;;;;;;12.63;9.32;;;-1.50;99.90;;;;;;4935648;29;20515;-84
2022/01/13 01:54:55;;;;;;;14.13;8.70;;;-1.60;99.90;;;;;;4935509;29;20046;-84
2022/01/13 01:57:23;;;;;;;15.05;9.50;;;-1.60;99.90;;;;;;4935280;29;20098;-80
2022/01/13 01:59:51;;;;;;;14.90;9.15;;;-1.50;99.90;;;;;;4934958;29;20040;-81
2022/01/13 02:02:20;;;;;;;12.43;8.20;;;-1.50;99.90;;;;;;4934832;29;20067;-81
2022/01/13 02:04:47;;;;;;;11.75;8.63;;;-1.60;99.90;;;;;;4934720;29;20091;-79
2022/01/13 02:07:15;;;;;;;12.18;8.75;;;-1.60;99.90;;;;;;4934645;29;20051;-81
2022/01/13 02:09:44;;;;;;;13.32;8.55;;;-1.60;99.90;;;;;;4934727;29;20035;-77
2022/01/13 02:12:20;;;;;;;14.30;8.50;;;-1.70;99.90;;;;;;4935117;29;20047;-84
2022/01/13 02:17:24;;;;;;;14.32;9.55;;;-1.70;99.90;;;;;;4934550;29;20039;-76
2022/01/13 02:19:54;;;;;;;14.02;8.93;;;-1.60;99.90;;;;;;4934327;29;20051;-77
2022/01/13 02:22:23;;;;;;;12.50;9.07;;;-1.50;99.90;;;;;;4934862;29;20067;-78
2022/01/13 02:24:50;;;;;;;13.05;7.70;;;-1.60;99.90;;;;;;4953528;28;20042;-79
2022/01/13 02:27:17;;;;;;;14.65;9.73;;;-1.60;99.90;;;;;;4953954;28;20070;-79
2022/01/13 02:29:45;;;;;;;10.00;7.93;;;-1.60;99.90;;;;;;4953346;28;20480;-77
2022/01/13 02:32:13;;;;;;;14.30;9.70;;;-1.60;99.90;;;;;;4953304;28;20075;-77
2022/01/13 02:34:40;;;;;;;13.50;8.40;;;-1.60;99.90;;;;;;4953349;28;20035;-77
2022/01/13 02:37:08;;;;;;;11.82;8.38;;;-1.60;99.90;;;;;;4953312;28;20074;-78
2022/01/13 02:39:36;;;;;;;15.45;8.43;;;-1.70;99.90;;;;;;4953466;28;20046;-78
2022/01/13 02:42:12;;;;;;;11.55;8.55;;;-1.60;99.90;;;;;;4953777;28;20062;-78
2022/01/13 02:44:49;;;;;;;15.38;10.32;;;-1.60;99.90;;;;;;4953196;28;20031;-77
2022/01/13 02:47:33;;;;;;;13.32;8.55;;;-1.60;99.90;;;;;;4953234;28;20043;-77
2022/01/13 02:50:08;;;;;;;13.77;7.70;;;-1.70;99.90;;;;;;4952835;28;20039;-78
2022/01/13 02:52:35;;;;;;;13.15;8.30;;;-1.70;99.90;;;;;;4953137;28;20438;-79
2022/01/13 02:55:04;;;;;;;10.70;8.75;;;-1.70;99.90;;;;;;4952978;28;20043;-79
2022/01/13 02:57:32;;;;;;;11.10;8.27;;;-1.70;99.90;;;;;;4953083;28;20089;-73
2022/01/13 03:00:01;;;;;;;13.05;8.60;;;-1.70;99.90;;;;;;4954449;28;20050;-76
2022/01/13 03:02:30;;;;;;;12.05;8.18;;;-1.80;99.90;;;;;;4956756;28;20043;-77
2022/01/13 03:04:57;;;;;;;15.25;8.15;;;-1.80;99.90;;;;;;4956951;28;20043;-77
2022/01/13 03:07:26;;;;;;;11.95;8.75;;;-1.80;99.90;;;;;;4956885;28;20042;-77
2022/01/13 03:09:53;;;;;;;11.25;7.95;;;-1.70;99.90;;;;;;4957059;28;20141;-75
2022/01/13 03:12:24;;;;;;;11.82;7.95;;;-1.70;99.90;;;;;;4957197;28;20115;-78
2022/01/13 03:14:52;;;;;;;11.82;7.72;;;-1.80;99.90;;;;;;4956644;28;20039;-77
2022/01/13 03:17:19;;;;;;;9.05;7.95;;;-1.80;99.90;;;;;;4956722;28;20055;-79
2022/01/13 03:19:46;;;;;;;10.43;7.93;;;-1.80;99.90;;;;;;4956849;28;20054;-78
2022/01/13 03:22:14;;;;;;;12.93;8.70;;;-1.80;99.90;;;;;;4956528;28;20039;-74
2022/01/13 03:24:42;;;;;;;10.73;7.63;;;-1.90;99.90;;;;;;4938304;29;20492;-76
2022/01/13 03:27:18;;;;;;;10.82;7.95;;;-1.80;99.90;;;;;;4937978;29;20050;-75
2022/01/13 03:29:46;;;;;;;13.00;7.50;;;-1.80;99.90;;;;;;4936344;29;20040;-74
2022/01/13 03:32:15;;;;;;;9.48;7.97;;;-1.90;99.90;;;;;;4937133;29;20063;-75
2022/01/13 03:34:43;;;;;;;10.85;8.48;;;-2.00;99.90;;;;;;4937348;29;20511;-74
2022/01/13 03:37:10;;;;;;;11.93;8.02;;;-1.90;99.90;;;;;;4937365;29;20376;-77
2022/01/13 03:39:37;;;;;;;12.98;9.68;;;-1.90;99.90;;;;;;4937360;29;20062;-78
2022/01/13 03:42:05;;;;;;;9.20;7.53;;;-1.80;99.90;;;;;;4937219;29;20049;-76
2022/01/13 03:44:32;;;;;;;11.35;7.90;;;-1.80;99.90;;;;;;4935668;29;20051;-77
2022/01/13 03:47:02;;;;;;;7.93;6.55;;;-1.90;99.90;;;;;;4937015;29;20036;-79
2022/01/13 03:49:30;;;;;;;12.73;7.60;;;-1.90;99.90;;;;;;4935882;29;20050;-74
2022/01/13 03:52:04;;;;;;;14.45;8.60;;;-1.90;99.90;;;;;;4937128;29;20042;-76
2022/01/13 03:54:35;;;;;;;9.52;7.38;;;-1.90;99.90;;;;;;4936546;29;20391;-76
2022/01/13 03:57:53;;;;;;;12.50;8.43;;;-1.90;99.90;;;;;;4936856;29;20119;-73
2022/01/13 04:00:23;;;;;;;10.63;7.72;;;-1.90;99.90;;;;;;4945113;29;20516;-74
2022/01/13 04:02:50;;;;;;;10.50;8.05;;;-1.90;99.90;;;;;;4936887;29;20035;-77
2022/01/13 04:05:18;;;;;;;10.27;7.70;;;-1.80;99.90;;;;;;4936626;29;20095;-74
2022/01/13 04:07:45;;;;;;;12.63;7.78;;;-1.90;99.90;;;;;;4936753;29;20123;-74
2022/01/13 04:10:52;;;;;;;11.98;8.15;;;-1.70;99.90;;;;;;4936342;29;20247;-77
2022/01/13 04:13:43;;;;;;;12.60;8.70;;;-1.80;99.90;;;;;;4935653;29;20066;-76
2022/01/13 04:16:11;;;;;;;12.20;8.43;;;-1.90;99.90;;;;;;4936442;29;20046;-77
2022/01/13 04:18:39;;;;;;;12.70;8.38;;;-1.90;99.90;;;;;;4936532;29;20047;-78
2022/01/13 04:21:07;;;;;;;12.82;8.57;;;-1.80;99.90;;;;;;4936116;29;20443;-77
2022/01/13 04:23:34;;;;;;;9.93;7.43;;;-1.90;99.90;;;;;;4942889;29;20047;-78
2022/01/13 04:26:05;;;;;;;13.23;8.00;;;-1.90;99.90;;;;;;4955715;28;20039;-77
2022/01/13 04:28:35;;;;;;;14.68;9.18;;;-2.00;99.90;;;;;;4955506;28;20372;-75
2022/01/13 04:31:03;;;;;;;15.43;9.23;;;-1.90;99.90;;;;;;4955418;28;20035;-77
2022/01/13 04:33:32;;;;;;;9.70;7.97;;;-1.90;99.90;;;;;;4955524;28;20467;-76
2022/01/13 04:36:01;;;;;;;8.10;6.72;;;-1.90;99.90;;;;;;4955260;28;20044;-76
2022/01/13 04:38:28;;;;;;;9.43;7.28;;;-2.00;99.90;;;;;;4955256;28;20035;-74
2022/01/13 04:40:57;;;;;;;10.88;8.10;;;-2.00;99.90;;;;;;4955137;28;20046;-78
2022/01/13 04:43:25;;;;;;;11.90;8.68;;;-2.10;99.90;;;;;;4953808;29;20243;-78
2022/01/13 04:45:53;;;;;;;12.20;7.38;;;-1.90;99.90;;;;;;4955187;28;20039;-79
2022/01/13 04:48:20;;;;;;;14.20;7.32;;;-2.00;99.90;;;;;;4954254;29;20043;-79
2022/01/13 04:50:48;;;;;;;11.57;7.72;;;-2.00;99.90;;;;;;4953432;28;20507;-75
2022/01/13 04:53:15;;;;;;;10.77;7.70;;;-1.90;99.90;;;;;;4954197;29;20055;-76
2022/01/13 04:55:50;;;;;;;8.07;6.35;;;-2.00;99.90;;;;;;4937855;29;20053;-73
2022/01/13 04:58:21;;;;;;;13.07;7.60;;;-2.10;99.70;;;;;;4954976;28;20478;-75
2022/01/13 05:00:49;;;;;;;11.55;8.32;;;-2.10;99.50;;;;;;4954890;28;20039;-76
2022/01/13 05:03:17;;;;;;;9.57;7.53;;;-2.00;99.70;;;;;;4954845;28;20379;-76
2022/01/13 05:05:44;;;;;;;12.55;8.63;;;-2.00;99.90;;;;;;4953663;29;20522;-79
2022/01/13 05:08:11;;;;;;;11.27;8.75;;;-1.90;99.90;;;;;;4953623;29;20050;-78
2022/01/13 05:10:39;;;;;;;9.63;8.00;;;-2.00;99.20;;;;;;4954824;28;20067;-83
2022/01/13 05:13:09;;;;;;;14.32;8.32;;;-2.00;99.30;;;;;;4955735;28;20043;-85
2022/01/13 05:15:39;;;;;;;13.88;7.68;;;-2.00;99.40;;;;;;4954009;29;20051;-77
2022/01/13 05:18:23;;;;;;;10.25;8.13;;;-2.00;99.60;;;;;;4954635;28;20070;-81
2022/01/13 05:20:59;;;;;;;10.07;7.32;;;-2.10;99.90;;;;;;4954732;28;20411;-72
2022/01/13 05:24:03;;;;;;;15.90;8.93;;;-2.00;99.90;;;;;;4950345;28;20063;-80
2022/01/13 05:26:31;;;;;;;14.68;9.00;;;-2.10;99.60;;;;;;4935417;29;20032;-75
2022/01/13 05:28:58;;;;;;;11.57;8.18;;;-2.00;99.70;;;;;;4935053;29;20143;-77
2022/01/13 05:31:25;;;;;;;12.43;8.38;;;-2.00;99.70;;;;;;4935549;29;20040;-74
2022/01/13 05:33:53;;;;;;;13.80;9.25;;;-2.00;99.00;;;;;;4935273;29;20483;-75
2022/01/13 05:36:20;;;;;;;14.27;8.68;;;-2.00;99.40;;;;;;4934977;29;20047;-75
2022/01/13 05:38:47;;;;;;;10.70;8.35;;;-2.10;99.70;;;;;;4935165;29;20390;-80
2022/01/13 05:41:15;;;;;;;14.07;8.18;;;-2.10;99.40;;;;;;4935096;29;20054;-79
2022/01/13 05:43:42;;;;;;;12.05;8.32;;;-2.10;99.60;;;;;;4935178;29;20054;-77
2022/01/13 05:46:10;;;;;;;13.80;8.30;;;-2.10;99.60;;;;;;4935082;29;20039;-80
2022/01/13 05:48:37;;;;;;;10.80;7.88;;;-2.10;99.60;;;;;;4933837;29;20062;-78
2022/01/13 05:51:06;;;;;;;15.63;8.32;;;-2.20;99.30;;;;;;4934924;29;20091;-81
2022/01/13 05:53:34;;;;;;;12.63;8.93;;;-2.10;99.30;;;;;;4935260;29;20510;-78
2022/01/13 05:56:01;;;;;;;10.77;7.80;;;-2.10;99.30;;;;;;4934311;29;20392;-77
2022/01/13 05:58:32;;;;;;;9.70;7.60;;;-2.10;99.60;;;;;;4934664;29;20043;-73
2022/01/13 06:00:59;;;;;;;11.65;8.02;;;-2.10;99.10;;;;;;4936574;29;20073;-88
2022/01/13 06:03:27;;;;;;;11.75;8.55;;;-2.10;99.70;;;;;;4938121;29;20052;-78
2022/01/13 06:05:54;;;;;;;12.93;7.85;;;-2.00;99.40;;;;;;4936086;29;20035;-78
2022/01/13 06:08:21;;;;;;;20.05;11.70;;;-2.10;99.10;;;;;;4935477;29;20476;-86
2022/01/13 06:10:48;;;;;;;25.17;15.23;;;-1.80;99.90;;;;;;4936585;29;20048;-75
2022/01/13 06:13:16;;;;;;;27.75;14.98;;;-1.70;99.90;;;;;;4939139;29;20027;-80
2022/01/13 06:15:43;;;;;;;44.63;21.15;;;-1.40;99.90;;;;;;4953572;28;20118;-77
2022/01/13 06:18:15;;;;;;;24.40;14.25;;;-1.20;99.90;;;;;;4953686;28;20041;-76
2022/01/13 06:20:43;;;;;;;22.60;10.10;;;-1.30;98.60;;;;;;4953770;29;20043;-80
2022/01/13 06:23:15;;;;;;;32.42;14.35;;;-1.20;97.80;;;;;;4953563;28;20035;-78
2022/01/13 06:25:42;;;;;;;12.68;9.52;;;-1.30;97.40;;;;;;4934629;29;20090;-82
2022/01/13 06:28:09;;;;;;;13.55;8.73;;;-1.90;98.00;;;;;;4950275;29;20392;-79
2022/01/13 06:30:41;;;;;;;13.52;9.40;;;-1.90;98.70;;;;;;4934846;29;20039;-78
2022/01/13 06:33:08;;;;;;;14.43;9.18;;;-2.10;99.20;;;;;;4934883;29;20047;-84
2022/01/13 06:35:36;;;;;;;14.73;9.07;;;-2.10;99.40;;;;;;4933960;29;20399;-80
2022/01/13 06:38:04;;;;;;;13.88;8.20;;;-2.00;99.30;;;;;;4934929;29;20408;-76
2022/01/13 06:40:31;;;;;;;14.05;8.82;;;-2.10;98.60;;;;;;4934434;29;20043;-79
2022/01/13 06:42:59;;;;;;;10.45;8.45;;;-2.20;99.30;;;;;;4934392;29;20044;-84
2022/01/13 06:45:26;;;;;;;14.18;8.77;;;-2.10;99.50;;;;;;4934146;29;20123;-80
2022/01/13 06:47:53;;;;;;;15.07;9.25;;;-2.20;99.50;;;;;;4934885;29;20046;-80
2022/01/13 06:50:21;;;;;;;14.30;8.55;;;-2.20;99.50;;;;;;4935577;29;20048;-87
2022/01/13 06:52:48;;;;;;;14.18;8.75;;;-2.30;99.80;;;;;;4934949;29;20036;-85
2022/01/13 06:55:16;;;;;;;13.90;9.05;;;-2.10;99.60;;;;;;4934625;29;20411;-85
2022/01/13 06:57:43;;;;;;;21.17;11.65;;;-2.00;99.90;;;;;;4934213;29;20056;-79
2022/01/13 07:00:11;;;;;;;10.60;8.10;;;-1.30;99.80;;;;;;4933958;29;20039;-80
2022/01/13 07:02:38;;;;;;;12.20;8.85;;;-1.70;97.80;;;;;;4934829;29;20389;-84
2022/01/13 07:05:06;;;;;;;10.82;8.15;;;-1.80;98.50;;;;;;4934673;29;20391;-75
2022/01/13 07:07:37;;;;;;;13.50;8.82;;;-2.10;99.10;;;;;;4934198;29;20042;-79
2022/01/13 07:10:07;;;;;;;12.43;9.55;;;-2.10;99.60;;;;;;4933515;29;20052;-76
2022/01/13 07:12:35;;;;;;;14.45;9.20;;;-2.00;99.50;;;;;;4933387;29;20048;-78
2022/01/13 07:15:03;;;;;;;13.77;9.60;;;-2.10;99.50;;;;;;4933956;29;20468;-79
2022/01/13 07:17:31;;;;;;;20.33;10.43;;;-2.00;99.70;;;;;;4934196;29;20043;-82
2022/01/13 07:19:59;;;;;;;12.25;8.68;;;-2.00;98.90;;;;;;4933665;29;20050;-79
2022/01/13 07:22:26;;;;;;;14.70;10.30;;;-2.00;98.90;;;;;;4932563;29;20415;-80
2022/01/13 07:24:53;;;;;;;16.33;8.75;;;-2.00;98.80;;;;;;4943458;29;20047;-80
2022/01/13 07:27:21;;;;;;;12.95;9.18;;;-1.90;98.70;;;;;;4951590;28;20379;-78
2022/01/13 07:29:48;;;;;;;18.38;10.13;;;-2.00;98.60;;;;;;4950864;28;20051;-81
2022/01/13 07:32:16;;;;;;;17.80;9.25;;;-1.90;98.50;;;;;;4951433;28;20047;-81
2022/01/13 07:34:44;;;;;;;11.82;8.25;;;-2.00;98.60;;;;;;4951195;28;20039;-74
2022/01/13 07:37:14;;;;;;;;;;;-1.90;98.10;;;;;;4952859;28;20049;-76
2022/01/13 07:39:42;;;;;;;13.27;8.57;;;-2.00;98.70;;;;;;4952725;28;19945;-80
2022/01/13 07:42:10;;;;;;;20.48;9.20;;;-1.80;98.10;;;;;;4952816;28;20043;-79
2022/01/13 07:44:37;;;;;;;14.68;9.80;;;-1.80;97.60;;;;;;4952682;28;20045;-80
2022/01/13 07:47:05;;;;;;;13.27;8.75;;;-2.00;97.50;;;;;;4955570;28;20047;-81
2022/01/13 07:49:34;;;;;;;21.40;9.23;;;-1.70;97.50;;;;;;4956029;28;20118;-81
2022/01/13 07:52:03;;;;;;;16.95;8.63;;;-1.70;97.50;;;;;;4956001;28;20039;-80
2022/01/13 07:54:31;;;;;;;13.65;9.27;;;-1.80;96.60;;;;;;4955952;29;20039;-76
2022/01/13 07:57:01;;;;;;;17.23;10.50;;;-1.90;97.10;;;;;;4955714;28;20051;-78
2022/01/13 07:59:29;;;;;;;20.10;9.68;;;-1.60;97.20;;;;;;4955930;28;20069;-77
2022/01/13 08:01:58;;;;;;;16.73;10.05;;;-1.50;96.10;;;;;;4954807;29;20398;-80
2022/01/13 08:04:26;;;;;;;15.05;8.90;;;-1.50;96.40;;;;;;4955682;28;20423;-78
2022/01/13 08:06:54;;;;;;;13.63;9.80;;;-1.50;96.30;;;;;;4956002;28;20091;-79
2022/01/13 08:09:23;;;;;;;12.27;8.73;;;-1.40;95.90;;;;;;4955920;28;20427;-75
2022/01/13 08:11:50;;;;;;;14.25;9.15;;;-1.40;95.70;;;;;;4955883;28;20066;-79
2022/01/13 08:14:19;;;;;;;15.82;9.32;;;-1.50;94.90;;;;;;4956066;28;20486;-81
2022/01/13 08:16:47;;;;;;;16.08;9.70;;;-1.50;94.90;;;;;;4954595;29;20440;-80
2022/01/13 08:22:00;;;;;;;17.23;9.82;;;-1.10;94.50;;;;;;4955350;28;20094;-79
2022/01/13 08:24:27;;;;;;;13.75;9.32;;;-1.30;93.80;;;;;;4948919;28;20042;-80
2022/01/13 08:26:55;;;;;;;15.55;10.05;;;-1.40;94.00;;;;;;4936906;29;20036;-80
2022/01/13 08:29:22;;;;;;;15.88;9.52;;;-1.40;93.90;;;;;;4935394;29;20040;-77
2022/01/13 08:31:50;;;;;;;14.65;9.10;;;-1.20;93.60;;;;;;4936446;29;20041;-77
2022/01/13 08:34:17;;;;;;;12.32;8.95;;;-1.20;93.20;;;;;;4936337;29;20452;-76
2022/01/13 08:36:45;;;;;;;16.52;9.63;;;-1.20;93.00;;;;;;4935067;29;20483;-75
2022/01/13 08:39:12;;;;;;;14.93;9.50;;;-1.20;92.70;;;;;;4936190;29;20127;-81
2022/01/13 08:41:41;;;;;;;15.73;9.77;;;-1.10;92.80;;;;;;4936462;29;20036;-79
2022/01/13 08:44:09;;;;;;;15.45;9.25;;;-0.90;92.80;;;;;;4936295;29;20032;-76
2022/01/13 08:46:37;;;;;;;16.25;9.75;;;-1.00;91.60;;;;;;4936249;29;20035;-80
2022/01/13 08:49:05;;;;;;;16.10;9.85;;;-0.90;92.00;;;;;;4936317;29;20126;-79
2022/01/13 08:51:32;;;;;;;13.93;8.50;;;-0.80;91.10;;;;;;4935714;29;20046;-76
2022/01/13 08:54:00;;;;;;;13.77;9.27;;;-1.10;91.10;;;;;;4934576;29;20507;-78
2022/01/13 08:56:27;;;;;;;14.75;9.48;;;-1.00;91.30;;;;;;4935607;29;20052;-81
2022/01/13 08:58:55;;;;;;;15.35;9.30;;;-0.50;90.80;;;;;;4935243;29;20040;-81
2022/01/13 09:01:22;;;;;;;12.52;9.35;;;-0.20;89.20;;;;;;4935918;28;20146;-78
2022/01/13 09:03:50;;;;;;;19.38;9.98;;;0.10;86.40;;;;;;4935788;29;20035;-81
2022/01/13 09:06:17;;;;;;;13.38;8.93;;;0.20;85.20;;;;;;4935826;29;20047;-77
2022/01/13 09:08:44;;;;;;;12.63;8.75;;;0.30;84.30;;;;;;4935836;29;20050;-80
2022/01/13 09:11:12;;;;;;;15.18;9.10;;;0.20;83.10;;;;;;4935452;29;20051;-79
2022/01/13 09:13:39;;;;;;;14.65;9.07;;;0.60;84.30;;;;;;4935626;29;20050;-76
2022/01/13 09:16:15;;;;;;;15.38;10.32;;;1.00;81.80;;;;;;4935660;29;20470;-76
2022/01/13 09:21:23;;;;;;;;;;;0.30;81.30;;;;;;4935953;29;20048;-79
2022/01/13 09:23:51;;;;;;;15.40;10.05;;;-0.30;84.20;;;;;;4935493;29;19925;-82
2022/01/13 09:26:18;;;;;;;17.65;10.30;;;-0.10;85.90;;;;;;4935343;29;20046;-76
2022/01/13 09:28:45;;;;;;;49.15;22.45;;;0.40;86.10;;;;;;4935421;29;20077;-80
2022/01/13 09:31:13;;;;;;;34.97;18.27;;;0.80;87.20;;;;;;4935133;29;20421;-80
2022/01/13 09:33:40;;;;;;;33.38;17.30;;;1.10;85.00;;;;;;4935153;29;20043;-79
2022/01/13 09:36:08;;;;;;;18.67;11.52;;;1.30;84.50;;;;;;4935376;29;20043;-82
2022/01/13 09:38:36;;;;;;;15.23;9.85;;;1.10;80.90;;;;;;4935447;29;20032;-81
2022/01/13 09:41:04;;;;;;;12.82;9.60;;;1.20;81.70;;;;;;4935122;29;20055;-77
2022/01/13 09:43:31;;;;;;;19.20;10.80;;;1.10;79.70;;;;;;4934809;29;20039;-78
2022/01/13 09:45:59;;;;;;;14.70;10.23;;;1.20;80.60;;;;;;4935042;29;20040;-76
2022/01/13 09:48:28;;;;;;;15.68;10.10;;;1.30;80.10;;;;;;4934627;29;20075;-75
2022/01/13 09:50:55;;;;;;;15.07;9.82;;;1.30;80.00;;;;;;4935069;29;20036;-75
2022/01/13 09:53:23;;;;;;;15.32;10.32;;;1.20;79.20;;;;;;4934810;29;20126;-81
2022/01/13 09:55:51;;;;;;;14.57;9.63;;;1.00;79.20;;;;;;4934739;28;20043;-78
2022/01/13 09:58:18;;;;;;;15.23;9.35;;;0.80;80.00;;;;;;4935135;29;20049;-81
2022/01/13 10:00:46;;;;;;;15.82;10.52;;;1.10;80.20;;;;;;4934872;29;20036;-78
2022/01/13 10:03:16;;;;;;;16.65;11.50;;;1.70;77.60;;;;;;4934683;29;20099;-81
2022/01/13 10:06:01;;;;;;;15.05;9.88;;;2.10;75.70;;;;;;4934844;29;20044;-80
2022/01/13 10:08:50;;;;;;;14.60;10.15;;;2.20;74.50;;;;;;4934565;29;20048;-76
2022/01/13 10:11:37;;;;;;;17.85;11.23;;;2.00;72.80;;;;;;4934506;29;20050;-79
2022/01/13 10:17:00;;;;;;;16.20;10.00;;;1.50;73.50;;;;;;4934351;29;20047;-81
2022/01/13 10:19:42;;;;;;;17.52;10.65;;;1.80;75.00;;;;;;4934542;29;20035;-83
2022/01/13 10:22:16;;;;;;;17.85;10.27;;;2.00;72.50;;;;;;4934751;29;20372;-81
2022/01/13 10:24:48;;;;;;;17.75;10.80;;;1.80;72.80;;;;;;4939451;29;20039;-81
2022/01/13 10:27:27;;;;;;;17.05;10.50;;;1.60;73.30;;;;;;4954044;28;20050;-82
2022/01/13 10:29:58;;;;;;;15.07;9.85;;;1.80;73.60;;;;;;4953389;28;20039;-79
2022/01/13 10:32:37;;;;;;;17.40;10.15;;;2.30;73.20;;;;;;4950182;28;20031;-80
2022/01/13 10:35:07;;;;;;;22.83;10.82;;;2.80;71.50;;;;;;4943938;29;20045;-81
2022/01/13 10:37:39;;;;;;;15.60;10.40;;;2.30;69.60;;;;;;4940940;29;20044;-82
2022/01/13 10:40:18;;;;;;;17.67;10.88;;;1.20;73.20;;;;;;4942158;29;20038;-82
2022/01/13 10:43:15;;;;;;;14.10;9.65;;;1.40;74.70;;;;;;4942366;28;20044;-85
2022/01/13 10:45:52;;;;;;;14.85;9.95;;;2.00;74.30;;;;;;4941434;29;20410;-81
2022/01/13 10:48:24;;;;;;;14.30;10.00;;;1.40;73.10;;;;;;4939647;29;20437;-80
2022/01/13 10:50:54;;;;;;;16.38;10.00;;;1.40;73.40;;;;;;4943250;28;20040;-82
2022/01/13 10:53:25;;;;;;;17.38;11.02;;;1.20;74.20;;;;;;4943072;29;20419;-82
2022/01/13 10:55:57;;;;;;;20.25;10.82;;;2.00;74.00;;;;;;4941215;28;20036;-83
2022/01/13 10:58:28;;;;;;;17.42;11.27;;;2.50;72.60;;;;;;4941893;29;20044;-84
2022/01/13 11:00:57;;;;;;;17.65;10.23;;;3.30;70.20;;;;;;4942255;29;20031;-84
2022/01/13 11:03:28;;;;;;;16.38;10.05;;;2.90;68.20;;;;;;4943022;28;20039;-79
2022/01/13 11:06:05;;;;;;;13.52;9.95;;;2.30;68.70;;;;;;4943774;29;20032;-77
2022/01/13 11:08:40;;;;;;;15.00;10.10;;;1.30;70.00;;;;;;4942687;28;20048;-83
2022/01/13 11:11:19;;;;;;;17.48;10.73;;;2.00;70.90;;;;;;4940650;29;20036;-82
2022/01/13 11:13:53;;;;;;;15.88;10.25;;;2.50;67.80;;;;;;4943621;28;20035;-84
2022/01/13 11:16:21;;;;;;;19.60;11.43;;;2.20;69.50;;;;;;4940094;29;20043;-82
2022/01/13 11:18:50;;;;;;;16.55;10.23;;;3.40;68.20;;;;;;4943919;29;20075;-76
2022/01/13 11:21:17;;;;;;;18.00;10.30;;;2.60;65.50;;;;;;4943632;29;20031;-83
2022/01/13 11:23:48;;;;;;;19.02;11.23;;;2.50;67.90;;;;;;4945830;28;20057;-78
2022/01/13 11:26:17;;;;;;;17.95;10.85;;;3.00;68.80;;;;;;4947791;28;20039;-78
2022/01/13 11:28:44;;;;;;;19.25;11.18;;;3.20;66.80;;;;;;4948394;29;20041;-78
2022/01/13 11:31:12;;;;;;;16.48;10.70;;;2.50;68.30;;;;;;4947186;29;20036;-84
2022/01/13 11:33:40;;;;;;;13.07;9.88;;;2.70;67.90;;;;;;4945958;29;20424;-82
2022/01/13 11:36:08;;;;;;;13.75;10.15;;;2.30;66.50;;;;;;4938200;28;20050;-75
2022/01/13 11:38:36;;;;;;;14.77;11.35;;;1.30;70.20;;;;;;4937608;29;20420;-83
2022/01/13 11:41:06;;;;;;;15.90;11.00;;;1.30;71.70;;;;;;4937462;29;20042;-82
2022/01/13 11:43:39;;;;;;;13.23;10.23;;;1.40;71.70;;;;;;4945239;29;20062;-80
2022/01/13 11:46:21;;;;;;;16.60;10.55;;;1.30;72.20;;;;;;4953569;28;20046;-83
2022/01/13 11:48:57;;;;;;;15.18;10.38;;;1.40;72.40;;;;;;4956414;28;20506;-79
2022/01/13 11:51:28;;;;;;;14.50;10.15;;;1.70;71.90;;;;;;4955323;29;20039;-82
2022/01/13 11:54:04;;;;;;;17.45;11.27;;;1.60;71.60;;;;;;4956672;28;20065;-84
2022/01/13 11:57:10;;;;;;;19.25;11.68;;;2.40;73.50;;;;;;4948601;28;20067;-81
2022/01/13 11:59:38;;;;;;;19.20;12.27;;;4.00;69.60;;;;;;4936805;29;20379;-84
2022/01/13 12:02:42;;;;;;;21.60;12.27;;;4.70;66.50;;;;;;4936951;29;20412;-84
2022/01/13 12:05:16;;;;;;;16.60;11.30;;;5.30;64.00;;;;;;4935587;29;20074;-79
2022/01/13 12:07:45;;;;;;;19.65;12.27;;;5.60;62.20;;;;;;4938628;29;20478;-85
2022/01/13 12:10:21;;;;;;;19.23;11.35;;;5.80;62.10;;;;;;4941888;29;20130;-82
2022/01/13 12:12:48;;;;;;;19.45;12.82;;;5.50;62.10;;;;;;4945421;29;20062;-76
2022/01/13 12:15:24;;;;;;;18.85;11.77;;;5.90;61.30;;;;;;4952657;29;20043;-80
2022/01/13 12:18:00;;;;;;;19.52;11.85;;;5.10;60.40;;;;;;4954232;28;20383;-78
2022/01/13 12:23:37;;;;;;;16.65;11.35;;;3.60;64.80;;;;;;4956888;28;20398;-90
2022/01/13 12:26:33;;;;;;;16.23;10.55;;;3.50;64.00;;;;;;4963648;28;20090;-88
2022/01/13 12:29:28;;;;;;;19.70;11.90;;;2.80;65.90;;;;;;4957587;28;20134;-81
2022/01/13 12:31:57;;;;;;;15.75;11.15;;;3.90;64.90;;;;;;4953820;28;20040;-81
2022/01/13 12:34:28;;;;;;;16.98;11.85;;;3.00;64.40;;;;;;4955546;28;20320;-80
2022/01/13 12:37:13;;;;;;;20.17;12.27;;;3.50;66.80;;;;;;4955438;28;20122;-81
2022/01/13 12:39:45;;;;;;;18.27;11.25;;;4.80;63.50;;;;;;4955568;28;20110;-81
2022/01/13 12:42:15;;;;;;;17.63;12.23;;;4.50;62.70;;;;;;4955455;28;20098;-79
2022/01/13 12:47:29;;;;;;;18.08;12.35;;;5.60;60.80;;;;;;4955299;28;20047;-83
2022/01/13 12:49:56;;;;;;;18.05;12.45;;;6.30;59.70;;;;;;4957204;28;20043;-84
2022/01/13 12:52:26;;;;;;;18.38;11.43;;;6.90;58.50;;;;;;4956491;29;20039;-84
2022/01/13 12:54:57;;;;;;;19.52;11.25;;;5.50;58.10;;;;;;4955184;29;20428;-83
2022/01/13 12:57:24;;;;;;;17.80;12.20;;;4.60;60.90;;;;;;4954854;28;20460;-82
2022/01/13 12:59:59;;;;;;;19.13;12.43;;;4.10;61.40;;;;;;4955390;28;20405;-83
2022/01/13 13:02:29;;;;;;;18.77;11.65;;;4.30;61.90;;;;;;4955140;28;20127;-83
2022/01/13 13:04:57;;;;;;;17.60;11.80;;;4.40;61.50;;;;;;4955446;28;20043;-82
2022/01/13 13:07:27;;;;;;;18.52;12.10;;;4.30;61.20;;;;;;4955800;28;20040;-82
2022/01/13 13:10:24;;;;;;;18.35;12.55;;;4.40;61.90;;;;;;4955335;28;20122;-84
2022/01/13 13:12:53;;;;;;;19.27;12.95;;;5.10;61.00;;;;;;4950337;29;20062;-88
2022/01/13 13:17:51;;;;;;;17.20;11.65;;;4.30;61.30;;;;;;4956109;28;20047;-84
2022/01/13 13:20:31;;;;;;;18.80;12.07;;;4.00;61.80;;;;;;4955360;28;20043;-81
2022/01/13 13:23:03;;;;;;;19.63;12.27;;;3.70;62.20;;;;;;4954064;29;20097;-82
2022/01/13 13:25:40;;;;;;;18.27;11.40;;;3.70;62.70;;;;;;4954877;28;20372;-83